Grecale — ILBG2 — position and weather

sailwx.info

Track history (hours):
 
Tides and Currents Weather Stations Pressure Air Temp Water Temp Dewpoint Dewpoint Depression Visibility Wind Speed Wind Dir Waves Ship Positions

Grecale

Last reported at 2018-Mar-15 04:26 UTC. Time now 2018-May-25 14:41 UTC.
Position N 40°02' E 016°44'.
Warning: this ship's position is months out of date.

Type: Fishing. MMSI: 247133470.

Date/timePositionNaut miles runAvg speedWind from/ knotsBaromVisibWave heightAir tempDewpointWater temp
2018-Mar-15 04:26N 40°02' E 016°44'3 7.2
2018-Mar-15 03:57N 40°01' E 016°40'1 1.5
2018-Mar-15 03:27N 40°02' E 016°40'1 2.6
2018-Mar-15 02:56N 40°03' E 016°41'1 2.8
2018-Mar-15 02:29N 40°04' E 016°42'1 2.8
2018-Mar-15 02:00N 40°05' E 016°43'1 2.8
2018-Mar-15 01:30N 40°06' E 016°44'1 2.8
2018-Mar-15 01:00N 40°07' E 016°45'1 2.7
2018-Mar-15 00:30N 40°08' E 016°46'1 1.0
2018-Mar-14 23:58N 40°09' E 016°46'5 2.6
2018-Mar-14 22:07N 40°05' E 016°42'0 2.7
2018-Mar-14 21:58N 40°05' E 016°42'1 0.2
2018-Mar-14 19:10N 40°05' E 016°43'1 2.9
2018-Mar-14 18:53N 40°05' E 016°43'1 2.8
2018-Mar-14 18:26N 40°07' E 016°44'1 2.8
2018-Mar-14 18:00N 40°08' E 016°45'1 2.9
2018-Mar-14 17:31N 40°09' E 016°46'4 2.0
2018-Mar-14 15:22N 40°05' E 016°43'1 2.8
2018-Mar-14 15:00N 40°04' E 016°42'2 2.8
2018-Mar-14 14:08N 40°02' E 016°40'0 2.8
2018-Mar-14 14:00N 40°02' E 016°40'4 5.4
2018-Mar-14 13:16N 39°59' E 016°44'5 0.4
2018-Mar-14 01:21N 39°55' E 016°43'1 2.7
2018-Mar-14 01:01N 39°54' E 016°42'2 3.0
2018-Mar-14 00:30N 39°54' E 016°40'15 7.5
2018-Mar-13 22:27N 39°40' E 016°31'0 0.0
2018-Mar-13 16:35N 39°40' E 016°31'0 0.0
2018-Mar-13 16:30N 39°40' E 016°31'0 0.0
2018-Mar-13 15:56N 39°40' E 016°31'0 0.0
2018-Mar-13 15:31N 39°40' E 016°31'1 1.4
2018-Mar-13 14:57N 39°41' E 016°32'3 7.3
2018-Mar-13 14:29N 39°44' E 016°33'4 5.4
2018-Mar-13 13:43N 39°47' E 016°36'6 1.7
2018-Mar-13 10:18N 39°51' E 016°42'1 2.5
2018-Mar-13 09:42N 39°50' E 016°44'1 2.5
2018-Mar-13 09:14N 39°49' E 016°45'13 2.4
2018-Mar-13 03:57N 40°01' E 016°40'7 2.7
2018-Mar-13 01:17N 40°07' E 016°45'1 0.6
2018-Mar-13 00:00N 40°07' E 016°44'2 2.8
2018-Mar-12 23:23N 40°05' E 016°43'1 2.8
2018-Mar-12 23:00N 40°05' E 016°42'2 2.8
2018-Mar-12 22:22N 40°03' E 016°41'2 2.9
2018-Mar-12 21:43N 40°02' E 016°39'1 1.6
2018-Mar-12 21:23N 40°02' E 016°39'5 2.8
2018-Mar-12 19:28N 40°07' E 016°43'1 2.6
2018-Mar-12 18:54N 40°08' E 016°44'0 0.4
2018-Mar-12 17:48N 40°08' E 016°45'1 2.7
2018-Mar-12 17:27N 40°07' E 016°44'2 2.9
2018-Mar-12 16:47N 40°06' E 016°43'2 2.8
2018-Mar-12 16:14N 40°04' E 016°42'1 2.8
2018-Mar-12 15:49N 40°04' E 016°41'1 2.9
2018-Mar-12 15:29N 40°03' E 016°40'4 3.2
2018-Mar-12 14:10N 40°01' E 016°45'4 0.5
2018-Mar-12 07:02N 39°57' E 016°46'0 2.8
2018-Mar-12 06:58N 39°58' E 016°46'5 2.7
2018-Mar-12 05:07N 40°02' E 016°45'0 1.2
2018-Mar-12 05:00N 40°03' E 016°45'3 2.6
2018-Mar-12 03:48N 39°60' E 016°45'1 2.7
2018-Mar-12 03:18N 39°58' E 016°45'1 2.6
2018-Mar-12 02:58N 39°57' E 016°45'1 2.7
2018-Mar-12 02:30N 39°56' E 016°44'1 2.6
2018-Mar-12 02:00N 39°55' E 016°43'1 2.9
2018-Mar-12 01:30N 39°55' E 016°41'15 6.6
2018-Mar-11 23:18N 39°42' E 016°32'2 6.1
2018-Mar-11 22:59N 39°40' E 016°31'  
2018-Mar-07 21:27N 40°07' E 016°43'2 2.7
2018-Mar-07 20:53N 40°05' E 016°42'1 2.8
2018-Mar-07 20:30N 40°05' E 016°41'2 2.2
2018-Mar-07 19:26N 40°02' E 016°40'1 2.6
2018-Mar-07 19:00N 40°02' E 016°39'19 2.9
2018-Mar-07 12:32N 39°45' E 016°50'11 2.6
2018-Mar-07 08:23N 39°39' E 017°02'5 8.4
2018-Mar-07 07:50N 39°36' E 016°58'8 1.1
2018-Mar-07 00:08N 39°37' E 016°47'3 8.1
2018-Mar-06 23:44N 39°38' E 016°43'2 8.0
2018-Mar-06 23:26N 39°39' E 016°40'4 8.1
2018-Mar-06 22:59N 39°40' E 016°36'3 0.4
2018-Mar-06 14:21N 39°40' E 016°31'2 5.7
2018-Mar-06 13:59N 39°41' E 016°34'1 1.2
2018-Mar-06 13:17N 39°41' E 016°35'1 2.2
2018-Mar-06 12:54N 39°40' E 016°36'1 2.3
2018-Mar-06 12:28N 39°40' E 016°37'1 2.3
2018-Mar-06 12:00N 39°40' E 016°39'1 2.3
2018-Mar-06 11:24N 39°39' E 016°40'1 2.5
2018-Mar-06 10:59N 39°39' E 016°41'1 2.4
2018-Mar-06 10:29N 39°39' E 016°43'4 6.4
2018-Mar-06 09:49N 39°37' E 016°48'0 1.4
2018-Mar-06 09:28N 39°37' E 016°49'1 2.4
2018-Mar-06 08:59N 39°37' E 016°50'2 2.3
2018-Mar-06 08:10N 39°36' E 016°52'1 2.4
2018-Mar-06 07:55N 39°35' E 016°53'3 0.6
2018-Mar-06 02:04N 39°37' E 016°49'0 0.4
2018-Mar-06 01:59N 39°37' E 016°49'1 1.2
2018-Mar-06 01:22N 39°37' E 016°50'2 2.2
2018-Mar-06 00:34N 39°36' E 016°52'3 2.5
2018-Mar-05 23:19N 39°34' E 016°55'8 1.5
2018-Mar-05 17:37N 39°38' E 016°45'1 8.1
2018-Mar-05 17:29N 39°38' E 016°44'4 7.9
2018-Mar-05 16:58N 39°39' E 016°39'6 7.5
2018-Mar-05 16:11N 39°40' E 016°31'0 0.2
2018-Mar-05 15:52N 39°40' E 016°31'13 4.6
2018-Mar-05 13:02N 39°52' E 016°38'0 2.7
2018-Mar-05 12:54N 39°52' E 016°39'3 2.8
2018-Mar-05 11:46N 39°54' E 016°42'1 2.7
2018-Mar-05 11:26N 39°54' E 016°43'7 1.1
2018-Mar-05 05:06N 40°01' E 016°45'0 2.8
2018-Mar-05 05:00N 40°01' E 016°45'  
Track history (hours):
 
Tides and Currents Weather Stations Pressure Air Temp Water Temp Dewpoint Dewpoint Depression Visibility Wind Speed Wind Dir Waves Ship Positions

Grecale

Last reported at 2018-Mar-15 04:26 UTC. Time now 2018-May-25 14:41 UTC.
Position N 40°02' E 016°44'.
Warning: this ship's position is months out of date.

Type: Fishing. MMSI: 247133470.

Date/timePositionNaut miles runAvg speedWind from/ knotsBaromVisibWave heightAir tempDewpointWater temp
2018-Mar-15 04:26N 40°02' E 016°44'3 7.2
2018-Mar-15 03:57N 40°01' E 016°40'1 1.5
2018-Mar-15 03:27N 40°02' E 016°40'1 2.6
2018-Mar-15 02:56N 40°03' E 016°41'1 2.8
2018-Mar-15 02:29N 40°04' E 016°42'1 2.8
2018-Mar-15 02:00N 40°05' E 016°43'1 2.8
2018-Mar-15 01:30N 40°06' E 016°44'1 2.8
2018-Mar-15 01:00N 40°07' E 016°45'1 2.7
2018-Mar-15 00:30N 40°08' E 016°46'1 1.0
2018-Mar-14 23:58N 40°09' E 016°46'5 2.6
2018-Mar-14 22:07N 40°05' E 016°42'0 2.7
2018-Mar-14 21:58N 40°05' E 016°42'1 0.2
2018-Mar-14 19:10N 40°05' E 016°43'1 2.9
2018-Mar-14 18:53N 40°05' E 016°43'1 2.8
2018-Mar-14 18:26N 40°07' E 016°44'1 2.8
2018-Mar-14 18:00N 40°08' E 016°45'1 2.9
2018-Mar-14 17:31N 40°09' E 016°46'4 2.0
2018-Mar-14 15:22N 40°05' E 016°43'1 2.8
2018-Mar-14 15:00N 40°04' E 016°42'2 2.8
2018-Mar-14 14:08N 40°02' E 016°40'0 2.8
2018-Mar-14 14:00N 40°02' E 016°40'4 5.4
2018-Mar-14 13:16N 39°59' E 016°44'5 0.4
2018-Mar-14 01:21N 39°55' E 016°43'1 2.7
2018-Mar-14 01:01N 39°54' E 016°42'2 3.0
2018-Mar-14 00:30N 39°54' E 016°40'15 7.5
2018-Mar-13 22:27N 39°40' E 016°31'0 0.0
2018-Mar-13 16:35N 39°40' E 016°31'0 0.0
2018-Mar-13 16:30N 39°40' E 016°31'0 0.0
2018-Mar-13 15:56N 39°40' E 016°31'0 0.0
2018-Mar-13 15:31N 39°40' E 016°31'1 1.4
2018-Mar-13 14:57N 39°41' E 016°32'3 7.3
2018-Mar-13 14:29N 39°44' E 016°33'4 5.4
2018-Mar-13 13:43N 39°47' E 016°36'6 1.7
2018-Mar-13 10:18N 39°51' E 016°42'1 2.5
2018-Mar-13 09:42N 39°50' E 016°44'1 2.5
2018-Mar-13 09:14N 39°49' E 016°45'13 2.4
2018-Mar-13 03:57N 40°01' E 016°40'7 2.7
2018-Mar-13 01:17N 40°07' E 016°45'1 0.6
2018-Mar-13 00:00N 40°07' E 016°44'2 2.8
2018-Mar-12 23:23N 40°05' E 016°43'1 2.8
2018-Mar-12 23:00N 40°05' E 016°42'2 2.8
2018-Mar-12 22:22N 40°03' E 016°41'2 2.9
2018-Mar-12 21:43N 40°02' E 016°39'1 1.6
2018-Mar-12 21:23N 40°02' E 016°39'5 2.8
2018-Mar-12 19:28N 40°07' E 016°43'1 2.6
2018-Mar-12 18:54N 40°08' E 016°44'0 0.4
2018-Mar-12 17:48N 40°08' E 016°45'1 2.7
2018-Mar-12 17:27N 40°07' E 016°44'2 2.9
2018-Mar-12 16:47N 40°06' E 016°43'2 2.8
2018-Mar-12 16:14N 40°04' E 016°42'1 2.8
2018-Mar-12 15:49N 40°04' E 016°41'1 2.9
2018-Mar-12 15:29N 40°03' E 016°40'4 3.2
2018-Mar-12 14:10N 40°01' E 016°45'4 0.5
2018-Mar-12 07:02N 39°57' E 016°46'0 2.8
2018-Mar-12 06:58N 39°58' E 016°46'5 2.7
2018-Mar-12 05:07N 40°02' E 016°45'0 1.2
2018-Mar-12 05:00N 40°03' E 016°45'3 2.6
2018-Mar-12 03:48N 39°60' E 016°45'1 2.7
2018-Mar-12 03:18N 39°58' E 016°45'1 2.6
2018-Mar-12 02:58N 39°57' E 016°45'1 2.7
2018-Mar-12 02:30N 39°56' E 016°44'1 2.6
2018-Mar-12 02:00N 39°55' E 016°43'1 2.9
2018-Mar-12 01:30N 39°55' E 016°41'15 6.6
2018-Mar-11 23:18N 39°42' E 016°32'2 6.1
2018-Mar-11 22:59N 39°40' E 016°31'  
2018-Mar-07 21:27N 40°07' E 016°43'2 2.7
2018-Mar-07 20:53N 40°05' E 016°42'1 2.8
2018-Mar-07 20:30N 40°05' E 016°41'2 2.2
2018-Mar-07 19:26N 40°02' E 016°40'1 2.6
2018-Mar-07 19:00N 40°02' E 016°39'19 2.9
2018-Mar-07 12:32N 39°45' E 016°50'11 2.6
2018-Mar-07 08:23N 39°39' E 017°02'5 8.4
2018-Mar-07 07:50N 39°36' E 016°58'8 1.1
2018-Mar-07 00:08N 39°37' E 016°47'3 8.1
2018-Mar-06 23:44N 39°38' E 016°43'2 8.0
2018-Mar-06 23:26N 39°39' E 016°40'4 8.1
2018-Mar-06 22:59N 39°40' E 016°36'3 0.4
2018-Mar-06 14:21N 39°40' E 016°31'2 5.7
2018-Mar-06 13:59N 39°41' E 016°34'1 1.2
2018-Mar-06 13:17N 39°41' E 016°35'1 2.2
2018-Mar-06 12:54N 39°40' E 016°36'1 2.3
2018-Mar-06 12:28N 39°40' E 016°37'1 2.3
2018-Mar-06 12:00N 39°40' E 016°39'1 2.3
2018-Mar-06 11:24N 39°39' E 016°40'1 2.5
2018-Mar-06 10:59N 39°39' E 016°41'1 2.4
2018-Mar-06 10:29N 39°39' E 016°43'4 6.4
2018-Mar-06 09:49N 39°37' E 016°48'0 1.4
2018-Mar-06 09:28N 39°37' E 016°49'1 2.4
2018-Mar-06 08:59N 39°37' E 016°50'2 2.3
2018-Mar-06 08:10N 39°36' E 016°52'1 2.4
2018-Mar-06 07:55N 39°35' E 016°53'3 0.6
2018-Mar-06 02:04N 39°37' E 016°49'0 0.4
2018-Mar-06 01:59N 39°37' E 016°49'1 1.2
2018-Mar-06 01:22N 39°37' E 016°50'2 2.2
2018-Mar-06 00:34N 39°36' E 016°52'3 2.5
2018-Mar-05 23:19N 39°34' E 016°55'8 1.5
2018-Mar-05 17:37N 39°38' E 016°45'1 8.1
2018-Mar-05 17:29N 39°38' E 016°44'4 7.9
2018-Mar-05 16:58N 39°39' E 016°39'6 7.5
2018-Mar-05 16:11N 39°40' E 016°31'0 0.2
2018-Mar-05 15:52N 39°40' E 016°31'13 4.6
2018-Mar-05 13:02N 39°52' E 016°38'0 2.7
2018-Mar-05 12:54N 39°52' E 016°39'3 2.8
2018-Mar-05 11:46N 39°54' E 016°42'1 2.7
2018-Mar-05 11:26N 39°54' E 016°43'7 1.1
2018-Mar-05 05:06N 40°01' E 016°45'0 2.8
2018-Mar-05 05:00N 40°01' E 016°45'  

Dump ship's entire track history